Time;durP1;ratioP1;P1;durP2;ratioP2;P2;SDS_P1;SDS_P2;PMS_P1;PMS_P2;Temp;Humidity;BMP_temperature;BMP_pressure;BME280_temperature;BME280_humidity;BME280_pressure;Samples;Min_cycle;Max_cycle;Signal;HPM_P1;HPM_P2
2022/04/14 00:02:05;;;;;;;20.77;17.90;;;;;;;30.32;68.42;100678.41;5099545;27;66274;-35
2022/04/14 00:04:36;;;;;;;21.23;18.77;;;;;;;30.35;69.17;100680.66;5100488;27;69331;-35
2022/04/14 00:07:07;;;;;;;21.10;18.85;;;;;;;30.44;68.52;100682.03;5084853;27;66176;-34
2022/04/14 00:09:39;;;;;;;24.77;20.13;;;;;;;30.46;69.56;100681.81;5100417;27;69300;-34
2022/04/14 00:12:11;;;;;;;27.98;21.13;;;;;;;30.50;69.18;100685.72;5090710;27;66135;-36
2022/04/14 00:14:44;;;;;;;27.95;22.55;;;;;;;30.57;69.50;100696.50;5093241;27;68543;-35
2022/04/14 00:17:15;;;;;;;27.85;21.67;;;;;;;30.59;70.33;100700.66;5101606;27;65082;-35
2022/04/14 00:19:47;;;;;;;28.00;21.55;;;;;;;30.61;70.18;100709.34;5102177;27;69890;-35
2022/04/14 00:22:18;;;;;;;35.42;26.65;;;;;;;30.63;70.28;100714.56;5080821;27;65272;-35
2022/04/14 00:24:49;;;;;;;39.55;26.60;;;;;;;30.66;71.27;100717.63;5095951;27;69476;-34
2022/04/14 00:27:20;;;;;;;44.90;25.83;;;;;;;30.67;71.05;100724.72;5081065;27;66656;-35
2022/04/14 00:29:52;;;;;;;44.22;26.92;;;;;;;30.60;71.70;100706.88;5080544;27;68851;-34
2022/04/14 00:32:22;;;;;;;39.05;27.42;;;;;;;30.62;72.69;100711.03;5083071;27;66876;-35
2022/04/14 00:34:53;;;;;;;33.20;26.10;;;;;;;30.71;72.18;100731.34;5097691;27;70757;-34
2022/04/14 00:37:24;;;;;;;29.90;24.17;;;;;;;30.75;71.50;100737.13;5083823;27;66801;-35
2022/04/14 00:39:55;;;;;;;29.07;24.63;;;;;;;30.77;70.69;100734.22;5085672;27;69209;-35
2022/04/14 00:42:26;;;;;;;42.88;23.30;;;;;;;30.79;71.21;100737.53;5077289;27;65312;-35
2022/04/14 00:44:58;;;;;;;37.00;22.53;;;;;;;30.80;71.23;100745.44;5085860;27;69345;-36
2022/04/14 00:47:30;;;;;;;30.42;22.38;;;;;;;30.83;70.79;100755.00;5088750;27;65525;-35
2022/04/14 00:50:02;;;;;;;29.55;22.13;;;;;;;30.82;71.09;100753.38;5089471;27;69474;-36
2022/04/14 00:52:33;;;;;;;28.67;22.30;;;;;;;30.87;70.78;100750.78;5095530;27;66508;-36
2022/04/14 00:55:05;;;;;;;23.92;20.40;;;;;;;30.88;71.03;100757.88;5087233;27;69939;-37
2022/04/14 00:57:36;;;;;;;30.10;21.80;;;;;;;30.84;71.36;100745.81;5087498;27;66657;-36
2022/04/14 01:00:08;;;;;;;23.90;21.50;;;;;;;30.88;71.10;100757.88;5086250;27;69387;-35
2022/04/14 01:02:45;;;;;;;24.00;20.40;;;;;;;30.90;71.44;100761.19;5083359;27;66468;-35
2022/04/14 01:05:17;;;;;;;23.52;20.60;;;;;;;30.85;71.55;100758.34;5088865;27;70159;-37
2022/04/14 01:07:49;;;;;;;24.50;20.08;;;;;;;30.79;71.53;100753.78;5091040;27;66327;-36
2022/04/14 01:10:21;;;;;;;30.83;21.60;;;;;;;30.97;71.21;100775.50;5087294;27;70446;-35
2022/04/14 01:12:53;;;;;;;28.60;21.87;;;;;;;30.94;71.51;100765.09;5086096;27;65417;-34
2022/04/14 01:15:24;;;;;;;24.52;20.83;;;;;;;31.02;71.56;100781.06;5107016;27;69950;-36
2022/04/14 01:17:55;;;;;;;24.85;20.60;;;;;;;31.02;71.10;100770.25;5087442;27;66209;-35
2022/04/14 01:20:27;;;;;;;22.07;19.97;;;;;;;31.04;71.16;100772.72;5104053;27;70121;-36
2022/04/14 01:23:03;;;;;;;25.60;21.52;;;;;;;31.11;71.45;100776.19;5081182;27;65477;-35
2022/04/14 01:25:35;;;;;;;22.88;20.48;;;;;;;31.08;70.56;100763.09;5083448;27;70222;-35
2022/04/14 01:28:06;;;;;;;23.05;20.48;;;;;;;31.14;71.27;100773.84;5089782;27;66210;-35
2022/04/14 01:30:37;;;;;;;22.33;20.02;;;;;;;31.15;71.35;100775.53;5097823;27;69430;-35
2022/04/14 01:33:08;;;;;;;29.80;20.35;;;;;;;31.12;70.85;100765.13;5114587;27;64530;-35
2022/04/14 01:35:40;;;;;;;22.52;19.40;;;;;;;31.24;71.18;100772.53;5097823;27;70709;-35
2022/04/14 01:38:11;;;;;;;21.73;19.17;;;;;;;31.26;71.53;100775.81;5094612;27;65708;-36
2022/04/14 01:40:42;;;;;;;22.02;19.67;;;;;;;31.24;71.68;100772.53;5081917;27;71424;-35
2022/04/14 01:43:13;;;;;;;22.63;19.33;;;;;;;31.32;71.61;100774.94;5083513;27;67402;-35
2022/04/14 01:45:50;;;;;;;23.33;20.07;;;;;;;31.37;71.21;100783.22;5086853;27;69371;-34
2022/04/14 01:48:22;;;;;;;26.90;21.25;;;;;;;31.44;71.20;100769.59;5094502;27;65711;-35
2022/04/14 01:50:53;;;;;;;26.63;22.63;;;;;;;31.42;71.76;100769.81;5083241;27;70581;-39
2022/04/14 01:53:24;;;;;;;35.90;24.33;;;;;;;31.47;71.98;100778.09;5091767;27;66925;-34
2022/04/14 01:55:55;;;;;;;30.85;23.73;;;;;;;31.49;72.37;100765.16;5087792;27;71157;-34
2022/04/14 01:58:26;;;;;;;28.50;25.20;;;;;;;31.45;72.32;100752.28;5081758;27;66714;-36
2022/04/14 02:00:57;;;;;;;30.75;24.38;;;;;;;31.52;71.67;100763.88;5084054;27;70440;-34
2022/04/14 02:03:28;;;;;;;27.93;24.27;;;;;;;31.58;71.10;100763.78;5087477;27;66445;-34
2022/04/14 02:05:59;;;;;;;27.63;24.75;;;;;;;31.59;71.64;100749.19;5081748;27;70495;-35
2022/04/14 02:08:30;;;;;;;30.20;25.33;;;;;;;31.62;71.32;100753.31;5084945;27;66023;-35
2022/04/14 02:11:03;;;;;;;28.95;24.27;;;;;;;31.62;71.49;100750.59;5079117;27;68983;-34
2022/04/14 02:13:34;;;;;;;29.00;24.63;;;;;;;31.68;70.85;100756.97;5082857;27;66330;-35
2022/04/14 02:16:06;;;;;;;29.00;25.42;;;;;;;31.67;70.78;100760.75;5081916;27;69897;-35
2022/04/14 02:18:37;;;;;;;33.47;25.05;;;;;;;31.68;70.60;100763.25;5103795;27;65341;-34
2022/04/14 02:21:09;;;;;;;27.63;24.80;;;;;;;31.75;70.93;100768.59;5097915;27;69579;-35
2022/04/14 02:23:40;;;;;;;27.07;24.23;;;;;;;31.75;71.11;100779.44;5087074;27;65479;-34
2022/04/14 02:26:11;;;;;;;26.73;23.93;;;;;;;31.76;70.66;100775.66;5098797;27;70409;-34
2022/04/14 02:28:42;;;;;;;27.80;24.80;;;;;;;31.79;69.64;100769.78;5090940;27;67181;-34
2022/04/14 02:31:13;;;;;;;27.15;24.52;;;;;;;31.80;70.22;100776.88;5082208;27;69568;-35
2022/04/14 02:33:44;;;;;;;27.47;24.77;;;;;;;31.86;70.03;100780.53;5071005;27;66703;-34
2022/04/14 02:36:16;;;;;;;30.13;26.77;;;;;;;31.84;70.14;100783.47;5098710;27;70746;-35
2022/04/14 02:38:47;;;;;;;36.50;27.65;;;;;;;31.81;70.00;100773.91;5114678;27;66450;-34
2022/04/14 02:41:18;;;;;;;35.42;25.30;;;;;;;31.89;70.03;100777.38;5081813;27;70503;-35
2022/04/14 02:43:49;;;;;;;28.23;25.45;;;;;;;31.79;68.53;100758.94;5081080;27;67042;-35
2022/04/14 02:46:21;;;;;;;30.52;26.15;;;;;;;31.94;68.80;100778.38;5092712;27;69376;-37
2022/04/14 02:48:52;;;;;;;26.52;23.48;;;;;;;31.99;68.23;100775.78;5079896;27;66304;-35
2022/04/14 02:51:23;;;;;;;28.30;24.85;;;;;;;31.94;68.96;100764.81;5081952;27;70986;-35
2022/04/14 02:53:54;;;;;;;29.90;25.50;;;;;;;32.03;67.99;100776.97;5097731;27;66807;-35
2022/04/14 02:56:25;;;;;;;28.03;25.13;;;;;;;32.07;67.39;100771.94;5082118;27;69149;-34
2022/04/14 02:58:56;;;;;;;31.02;26.20;;;;;;;32.01;67.77;100768.25;5083737;27;66043;-36
2022/04/14 03:01:27;;;;;;;30.35;25.20;;;;;;;32.14;67.08;100772.66;5087736;27;70959;-36
2022/04/14 03:03:58;;;;;;;40.00;28.70;;;;;;;32.18;66.76;100779.28;5092380;27;66720;-35
2022/04/14 03:06:29;;;;;;;32.67;29.25;;;;;;;32.20;67.55;100777.16;5087070;27;70251;-35
2022/04/14 03:09:00;;;;;;;35.75;28.20;;;;;;;32.22;67.77;100782.34;5107485;27;66509;-35
2022/04/14 03:11:31;;;;;;;29.88;26.77;;;;;;;32.17;67.58;100768.66;5092845;27;71625;-35
2022/04/14 03:14:02;;;;;;;30.17;27.10;;;;;;;32.25;67.97;100784.59;5091247;27;66360;-34
2022/04/14 03:16:33;;;;;;;29.58;26.48;;;;;;;32.26;67.93;100770.81;5089210;27;69331;-35
2022/04/14 03:19:05;;;;;;;27.40;24.80;;;;;;;32.28;68.10;100765.13;5096847;27;66136;-41
2022/04/14 03:21:36;;;;;;;27.67;24.87;;;;;;;32.29;67.37;100766.81;5077492;27;70209;-35
2022/04/14 03:24:08;;;;;;;29.73;26.75;;;;;;;32.31;67.48;100766.56;5099122;27;65195;-36
2022/04/14 03:26:39;;;;;;;;;;;;;;;32.07;68.28;100765.66;5099155;27;70869;-35
2022/04/14 03:29:10;;;;;;;28.60;25.58;;;;;;;32.34;67.93;100761.47;5078400;28;65575;-36
2022/04/14 03:31:41;;;;;;;;;;;;;;;32.07;68.10;100765.66;5087402;27;70034;-36
2022/04/14 03:34:12;;;;;;;28.50;24.60;;;;;;;32.37;67.54;100765.63;5089292;27;66426;-37
2022/04/14 03:36:44;;;;;;;27.92;25.08;;;;;;;32.31;67.56;100751.09;5097177;27;70071;-35
2022/04/14 03:39:17;;;;;;;27.47;24.57;;;;;;;32.36;67.12;100756.66;5087752;27;64173;-36
2022/04/14 03:41:51;;;;;;;28.60;24.85;;;;;;;32.33;66.92;100737.31;5058011;27;69260;-36
2022/04/14 03:44:22;;;;;;;26.95;23.95;;;;;;;32.34;66.97;100753.34;5076187;27;65556;-36
2022/04/14 03:46:53;;;;;;;25.88;23.15;;;;;;;32.36;66.92;100747.69;5073297;27;69220;-35
2022/04/14 03:49:25;;;;;;;25.30;22.90;;;;;;;32.34;66.59;100739.75;5092852;27;66310;-36
2022/04/14 03:51:56;;;;;;;24.88;22.48;;;;;;;32.36;66.75;100732.22;5086960;27;70382;-36
2022/04/14 03:54:28;;;;;;;24.58;22.15;;;;;;;32.40;66.57;100728.00;5091314;27;65808;-36
2022/04/14 03:57:00;;;;;;;25.23;22.98;;;;;;;32.35;67.00;100725.16;5091692;27;70278;-36
2022/04/14 03:59:31;;;;;;;27.08;24.42;;;;;;;32.41;66.92;100724.22;5105806;27;66453;-36
2022/04/14 04:02:02;;;;;;;24.77;22.58;;;;;;;32.43;66.97;100716.66;5099467;27;70002;-35
2022/04/14 04:04:33;;;;;;;26.98;24.27;;;;;;;32.44;66.90;100712.88;5084683;27;65315;-36
2022/04/14 04:07:05;;;;;;;26.53;23.77;;;;;;;32.41;66.42;100697.06;5091861;27;70629;-35
2022/04/14 04:09:38;;;;;;;27.30;24.88;;;;;;;32.46;67.24;100705.34;5085614;27;66331;-36
2022/04/14 04:12:10;;;;;;;28.95;26.15;;;;;;;32.51;66.98;100706.53;5091960;27;69937;-36
2022/04/14 04:14:41;;;;;;;30.75;28.00;;;;;;;32.56;66.74;100709.38;5082314;27;65594;-36
2022/04/14 04:17:12;;;;;;;29.75;27.00;;;;;;;32.57;66.57;100694.72;5085479;27;70134;-36
2022/04/14 04:19:44;;;;;;;33.70;30.40;;;;;;;32.17;66.79;100638.38;5088884;27;66240;-36
2022/04/14 04:22:15;;;;;;;38.08;34.15;;;;;;;32.62;66.24;100689.41;5087066;27;70203;-36
2022/04/14 04:24:46;;;;;;;39.80;35.90;;;;;;;32.61;66.49;100685.88;5088792;27;67074;-35
2022/04/14 04:27:16;;;;;;;41.53;37.50;;;;;;;32.58;66.13;100669.22;5091721;27;69822;-36
2022/04/14 04:29:47;;;;;;;42.47;38.28;;;;;;;32.66;66.19;100677.03;5081427;27;67312;-35
2022/04/14 04:32:19;;;;;;;42.35;37.47;;;;;;;32.73;65.50;100669.56;5096753;27;70362;-37
2022/04/14 04:34:50;;;;;;;42.30;37.10;;;;;;;32.77;65.46;100673.47;5082932;27;65288;-36
2022/04/14 04:37:21;;;;;;;41.03;37.03;;;;;;;32.70;65.13;100656.47;5101914;27;70038;-36
2022/04/14 04:39:52;;;;;;;40.07;35.90;;;;;;;32.80;64.89;100658.59;5089877;27;65977;-36
2022/04/14 04:42:23;;;;;;;44.28;38.03;;;;;;;32.75;64.93;100640.28;5080740;27;70708;-36
2022/04/14 04:44:54;;;;;;;42.15;37.72;;;;;;;32.79;65.54;100648.75;5081904;27;65891;-35
2022/04/14 04:47:26;;;;;;;39.92;34.83;;;;;;;32.82;64.84;100631.97;5047562;28;70382;-35
2022/04/14 04:50:00;;;;;;;45.35;35.25;;;;;;;32.69;62.51;100633.09;5090413;27;65746;-36
2022/04/14 04:52:32;;;;;;;37.17;32.97;;;;;;;32.52;60.51;100624.03;5094030;27;69108;-36
2022/04/14 04:55:03;;;;;;;;;;;;;;;32.07;59.93;100619.13;5100843;27;65372;-36
2022/04/14 04:57:34;;;;;;;38.30;32.67;;;;;;;32.24;57.96;100610.06;5069557;27;70972;-36
2022/04/14 05:00:06;;;;;;;33.00;29.93;;;;;;;32.12;56.70;100605.69;5091026;27;65824;-36
2022/04/14 05:02:37;;;;;;;33.65;29.50;;;;;;;32.08;55.68;100609.97;5094071;27;69891;-42
2022/04/14 05:05:08;;;;;;;34.00;29.67;;;;;;;31.97;55.18;100607.00;5083234;27;65778;-35
2022/04/14 05:07:39;;;;;;;37.65;28.38;;;;;;;31.89;53.98;100601.06;5096161;27;70199;-36
2022/04/14 05:10:11;;;;;;;31.58;27.95;;;;;;;31.77;52.90;100598.31;5100601;27;65565;-35
2022/04/14 05:12:42;;;;;;;38.72;26.33;;;;;;;31.72;52.27;100593.59;5095008;27;70162;-36
2022/04/14 05:15:13;;;;;;;30.03;25.90;;;;;;;31.65;51.92;100584.75;5081252;27;65752;-36
2022/04/14 05:17:44;;;;;;;37.35;26.55;;;;;;;31.58;51.31;100576.69;5091015;27;70417;-36
2022/04/14 05:20:15;;;;;;;28.98;25.92;;;;;;;31.48;50.62;100567.47;5100565;27;65492;-38
2022/04/14 05:22:46;;;;;;;30.08;26.02;;;;;;;31.46;50.05;100562.31;5100364;27;69025;-38
2022/04/14 05:25:17;;;;;;;29.63;25.27;;;;;;;31.39;49.71;100562.38;5079966;27;66048;-44
2022/04/14 05:27:48;;;;;;;32.73;23.40;;;;;;;31.39;49.22;100556.16;5081118;27;68814;-38
2022/04/14 05:30:19;;;;;;;24.83;22.63;;;;;;;31.34;47.91;100550.56;5057631;27;67011;-37
2022/04/14 05:32:50;;;;;;;28.70;23.43;;;;;;;31.33;47.70;100546.22;5100185;27;69790;-37
2022/04/14 05:35:21;;;;;;;24.20;21.85;;;;;;;31.29;46.81;100534.19;5084350;27;67699;-36
2022/04/14 05:37:53;;;;;;;23.40;21.05;;;;;;;30.65;46.47;100429.00;5079168;27;69910;-37
2022/04/14 05:40:24;;;;;;;25.90;20.75;;;;;;;31.24;46.55;100529.44;5080858;27;65683;-35
2022/04/14 05:42:55;;;;;;;22.80;20.97;;;;;;;31.19;45.80;100525.78;5084449;27;69734;-37
2022/04/14 05:45:28;;;;;;;22.88;20.58;;;;;;;31.18;46.17;100516.84;5076669;27;65382;-35
2022/04/14 05:47:58;;;;;;;22.70;20.65;;;;;;;31.13;45.53;100506.69;5078685;27;70350;-37
2022/04/14 05:50:30;;;;;;;21.53;19.77;;;;;;;31.14;45.18;100504.78;5097607;27;65959;-37
2022/04/14 05:53:01;;;;;;;21.07;19.23;;;;;;;31.21;45.54;100502.00;5080768;27;70773;-36
2022/04/14 05:55:32;;;;;;;21.23;19.50;;;;;;;31.13;45.20;100495.84;5092649;27;65276;-36
2022/04/14 05:58:05;;;;;;;20.45;18.73;;;;;;;30.89;44.09;100450.78;5081263;27;69987;-36
2022/04/14 06:00:37;;;;;;;20.75;18.83;;;;;;;31.03;44.40;100465.78;5085906;27;66059;-35
2022/04/14 06:03:07;;;;;;;;;;;;;;;30.83;44.43;100484.19;5094690;27;69960;-36
2022/04/14 06:05:38;;;;;;;19.65;18.00;;;;;;;31.12;43.77;100483.38;5097636;27;66652;-36
2022/04/14 06:08:10;;;;;;;19.60;18.10;;;;;;;31.06;43.12;100457.19;5100271;27;70044;-36
2022/04/14 06:10:41;;;;;;;19.90;18.42;;;;;;;31.12;43.35;100467.13;5098579;27;66444;-36
2022/04/14 06:13:12;;;;;;;18.63;17.00;;;;;;;31.08;43.45;100460.50;5087222;27;69978;-36
2022/04/14 06:15:43;;;;;;;18.42;17.13;;;;;;;31.02;42.94;100447.88;5099770;27;65633;-36
2022/04/14 06:18:15;;;;;;;18.90;17.40;;;;;;;31.10;42.67;100452.16;5090049;27;70171;-36
2022/04/14 06:20:47;;;;;;;18.25;16.88;;;;;;;31.03;42.80;100435.97;5079430;27;66636;-37
2022/04/14 06:23:19;;;;;;;18.50;17.05;;;;;;;31.13;42.84;100446.25;5084083;27;70295;-35
2022/04/14 06:25:50;;;;;;;18.60;17.33;;;;;;;31.12;42.02;100439.16;5101761;27;66032;-36
2022/04/14 06:28:21;;;;;;;16.67;15.48;;;;;;;31.13;41.96;100414.56;5097258;27;69163;-36
2022/04/14 06:30:52;;;;;;;17.77;16.40;;;;;;;31.16;42.14;100421.41;5090923;27;66174;-36
2022/04/14 06:33:23;;;;;;;16.50;15.40;;;;;;;31.19;42.04;100423.66;5101818;27;69690;-36
2022/04/14 06:35:54;;;;;;;17.87;16.43;;;;;;;31.23;41.85;100413.16;5084108;27;65622;-37
2022/04/14 06:38:29;;;;;;;19.70;18.33;;;;;;;31.23;45.05;100399.59;5089523;27;70496;-37
2022/04/14 06:41:01;;;;;;;20.70;18.77;;;;;;;31.33;44.55;100408.00;5084174;27;65713;-36
2022/04/14 06:43:50;;;;;;;19.05;17.63;;;;;;;31.37;45.12;100392.94;5018853;28;70193;-38
2022/04/14 06:46:34;;;;;;;18.77;16.85;;;;;;;31.33;43.88;100387.13;5000084;28;66318;-36
2022/04/14 06:49:21;;;;;;;20.00;18.42;;;;;;;31.35;43.52;100379.59;5014522;28;70040;-36
2022/04/14 06:52:08;;;;;;;19.35;17.48;;;;;;;31.28;43.31;100356.38;5003096;28;65504;-35
2022/04/14 06:54:54;;;;;;;23.35;17.70;;;;;;;31.40;43.45;100359.97;4999013;28;69848;-35
2022/04/14 06:57:39;;;;;;;18.98;17.08;;;;;;;31.44;42.73;100360.31;4986127;28;65303;-35
2022/04/14 07:00:27;;;;;;;18.70;16.85;;;;;;;31.51;42.54;100361.00;5018843;28;70312;-36
2022/04/14 07:03:17;;;;;;;21.00;17.13;;;;;;;31.51;41.85;100340.16;5001140;28;65626;-36
2022/04/14 07:06:04;;;;;;;17.70;16.40;;;;;;;31.57;41.89;100333.78;5002719;28;68882;-35
2022/04/14 07:08:50;;;;;;;19.15;17.27;;;;;;;31.59;41.59;100326.25;5005528;28;65368;-36
2022/04/14 07:11:37;;;;;;;18.60;16.80;;;;;;;31.56;41.19;100315.84;5001473;28;69505;-34
2022/04/14 07:14:31;;;;;;;17.05;15.68;;;;;;;31.63;41.13;100314.91;4973952;28;65913;-35
2022/04/14 07:17:16;;;;;;;17.13;15.50;;;;;;;31.70;41.10;100316.41;4975766;28;69856;-36
2022/04/14 07:20:09;;;;;;;17.58;16.35;;;;;;;31.74;41.06;100311.34;4970100;28;65531;-38
2022/04/14 07:22:58;;;;;;;17.92;16.17;;;;;;;31.59;40.84;100282.84;5055936;28;70401;-36
2022/04/14 07:25:42;;;;;;;17.88;16.38;;;;;;;31.68;40.65;100293.28;4979605;28;66025;-36
2022/04/14 07:28:29;;;;;;;17.15;15.75;;;;;;;31.63;39.92;100276.94;4979067;28;68806;-37
2022/04/14 07:31:13;;;;;;;17.77;16.08;;;;;;;31.71;39.89;100279.28;4920089;28;66445;-37
2022/04/14 07:34:00;;;;;;;16.98;15.55;;;;;;;31.69;39.97;100270.56;4921832;28;69564;-38
2022/04/14 07:36:47;;;;;;;16.23;14.98;;;;;;;31.70;40.09;100266.78;4920231;28;66177;-36
2022/04/14 07:39:40;;;;;;;16.50;15.13;;;;;;;31.64;39.98;100256.91;4867585;29;70137;-37
2022/04/14 07:42:39;;;;;;;17.00;15.43;;;;;;;31.10;40.78;100173.94;4797090;29;66192;-36
2022/04/14 07:45:25;;;;;;;;;;;;;;;31.44;41.12;100271.69;4803163;29;70350;-37
2022/04/14 07:48:12;;;;;;;17.15;15.68;;;;;;;31.76;40.69;100280.22;4827457;29;66012;-37
2022/04/14 07:51:02;;;;;;;17.23;16.13;;;;;;;31.75;40.13;100269.59;4827931;29;69288;-36
2022/04/14 07:53:53;;;;;;;21.45;14.95;;;;;;;31.43;40.03;100206.88;4825742;29;66274;-36
2022/04/14 07:56:41;;;;;;;16.85;15.30;;;;;;;31.77;40.34;100259.34;4808752;29;69124;-35
2022/04/14 07:59:33;;;;;;;16.13;15.02;;;;;;;31.79;39.66;100259.94;4772719;29;65987;-36
2022/04/14 08:02:20;;;;;;;15.55;14.50;;;;;;;31.77;39.34;100260.16;4801473;29;69863;-35
2022/04/14 08:05:07;;;;;;;17.23;15.75;;;;;;;31.74;39.64;100257.13;4871443;29;65318;-36
2022/04/14 08:07:54;;;;;;;17.52;16.30;;;;;;;31.73;39.83;100255.44;4855733;29;69975;-36
2022/04/14 08:10:50;;;;;;;17.83;16.42;;;;;;;31.76;40.00;100246.81;4876506;29;66341;-36
2022/04/14 08:13:38;;;;;;;16.48;15.23;;;;;;;31.75;39.45;100247.91;4851282;29;69510;-36
2022/04/14 08:16:26;;;;;;;17.60;16.33;;;;;;;31.73;39.36;100239.19;4852012;29;66031;-36
2022/04/14 08:19:21;;;;;;;17.75;16.38;;;;;;;31.72;39.10;100235.66;4860495;29;69201;-35
2022/04/14 08:22:10;;;;;;;18.38;16.95;;;;;;;31.65;38.75;100232.28;4867664;29;65637;-37
2022/04/14 08:24:58;;;;;;;19.15;17.42;;;;;;;31.71;39.30;100247.56;4885418;28;68621;-36
2022/04/14 08:27:48;;;;;;;18.38;16.88;;;;;;;31.75;38.81;100237.06;4858106;29;65721;-37
2022/04/14 08:30:40;;;;;;;17.60;16.17;;;;;;;31.73;39.06;100234.59;4801624;29;70265;-36
2022/04/14 08:33:26;;;;;;;75.88;60.67;;;;;;;31.81;45.91;100241.50;4788289;29;66594;-38
2022/04/14 08:36:15;;;;;;;116.45;97.30;;;;;;;32.00;51.46;100223.19;4793923;29;69382;-36
2022/04/14 08:39:02;;;;;;;114.65;98.97;;;;;;;32.28;55.07;100236.69;4792956;29;66204;-35
2022/04/14 08:41:59;;;;;;;98.35;84.85;;;;;;;32.56;57.15;100247.78;4807422;29;69960;-36
2022/04/14 08:45:03;;;;;;;82.88;65.40;;;;;;;32.79;57.67;100239.47;4807746;29;65883;-36
2022/04/14 08:47:51;;;;;;;58.10;43.57;;;;;;;32.98;57.24;100231.03;4753331;29;69120;-34
2022/04/14 08:50:50;;;;;;;61.85;45.25;;;;;;;33.15;57.35;100239.97;4736131;30;65990;-36
2022/04/14 08:53:39;;;;;;;54.70;45.15;;;;;;;33.23;57.62;100236.81;4706931;30;70347;-34
2022/04/14 08:56:10;;;;;;;52.17;45.33;;;;;;;33.34;57.28;100233.16;4765219;29;43252;-34
2022/04/14 08:58:57;;;;;;;55.80;42.72;;;;;;;33.39;57.75;100229.69;4802166;29;70179;-34
2022/04/14 09:02:11;;;;;;;;;;;;;;;33.29;58.48;100233.13;4805577;29;65964;-35
2022/04/14 09:04:58;;;;;;;48.53;37.30;;;;;;;33.50;57.94;100226.03;4806479;29;70144;-35
2022/04/14 09:07:51;;;;;;;52.15;40.38;;;;;;;33.63;58.21;100245.78;4817988;29;66221;-35
2022/04/14 09:10:47;;;;;;;51.33;36.28;;;;;;;33.65;58.34;100249.06;4811231;29;69341;-34
2022/04/14 09:13:49;;;;;;;37.80;32.92;;;;;;;33.68;58.75;100243.94;4825365;29;66772;-35
2022/04/14 09:16:33;;;;;;;37.10;31.83;;;;;;;33.71;58.94;100265.22;4804377;29;69727;-35
2022/04/14 09:19:23;;;;;;;42.08;32.63;;;;;;;33.72;59.67;100283.16;4800462;29;65539;-35
2022/04/14 09:22:15;;;;;;;37.53;32.58;;;;;;;33.40;60.53;100263.13;4807502;29;69118;-40
2022/04/14 09:25:00;;;;;;;40.45;32.15;;;;;;;33.56;61.76;100330.28;4821558;29;65348;-35
2022/04/14 09:27:46;;;;;;;38.47;30.23;;;;;;;33.50;61.80;100317.66;4831455;29;69188;-35
2022/04/14 09:30:36;;;;;;;38.97;30.42;;;;;;;33.46;61.88;100340.97;4776740;29;65612;-35
2022/04/14 09:33:20;;;;;;;35.25;29.40;;;;;;;33.38;61.96;100321.31;4811676;29;70644;-38
2022/04/14 09:36:16;;;;;;;30.48;26.88;;;;;;;33.32;62.01;100337.78;4792533;29;66346;-35
2022/04/14 09:38:55;;;;;;;28.73;24.85;;;;;;;33.18;62.07;100331.88;4806429;29;69636;-36
2022/04/14 09:41:46;;;;;;;28.85;26.00;;;;;;;33.23;62.27;100340.13;4796161;29;66615;-37
2022/04/14 09:44:29;;;;;;;27.80;24.83;;;;;;;33.19;62.53;100344.41;4790181;29;70168;-36
2022/04/14 09:47:46;;;;;;;26.33;23.60;;;;;;;32.97;63.42;100340.78;4871994;29;66825;-36
2022/04/14 09:50:36;;;;;;;26.63;24.05;;;;;;;32.72;63.33;100284.97;4880355;29;70891;-36
2022/04/14 09:53:37;;;;;;;26.42;22.95;;;;;;;32.98;63.41;100320.69;4874551;28;66707;-37
2022/04/14 09:56:41;;;;;;;23.60;21.23;;;;;;;32.98;63.80;100309.81;4853053;29;69134;-36
2022/04/14 09:59:34;;;;;;;22.17;20.08;;;;;;;32.94;63.94;100325.78;4807898;29;65662;-36
2022/04/14 10:02:22;;;;;;;21.98;19.83;;;;;;;32.90;63.67;100330.91;4808082;29;69057;-37
2022/04/14 10:05:34;;;;;;;21.08;19.23;;;;;;;32.76;64.32;100356.72;4753713;29;65951;-36
2022/04/14 10:08:51;;;;;;;21.13;19.13;;;;;;;32.78;64.11;100349.16;4731329;29;70055;-36
2022/04/14 10:11:40;;;;;;;19.90;18.17;;;;;;;32.76;64.18;100351.28;4687755;30;66534;-35
2022/04/14 10:14:30;;;;;;;20.23;18.05;;;;;;;32.76;64.50;100364.88;4752379;29;70310;-36
2022/04/14 10:17:17;;;;;;;19.55;17.65;;;;;;;32.77;64.67;100373.88;4747835;29;66732;-36
2022/04/14 10:20:06;;;;;;;19.38;17.58;;;;;;;32.73;65.04;100384.38;4752699;29;70629;-35
2022/04/14 10:22:53;;;;;;;20.55;18.80;;;;;;;32.65;65.11;100387.50;4750909;29;66121;-36
2022/04/14 10:25:40;;;;;;;19.45;17.63;;;;;;;32.70;65.39;100395.72;4751888;29;69329;-36
2022/04/14 10:28:26;;;;;;;20.45;18.50;;;;;;;32.38;65.54;100358.22;4751675;29;65345;-37
2022/04/14 10:31:01;;;;;;;19.73;18.02;;;;;;;32.63;65.68;100403.22;4743082;29;69191;-37
2022/04/14 10:33:49;;;;;;;19.98;18.05;;;;;;;32.70;65.62;100412.03;4765702;29;66256;-36
2022/04/14 10:36:20;;;;;;;20.73;18.63;;;;;;;32.66;65.95;100408.16;4791202;29;69958;-36
2022/04/14 10:39:11;;;;;;;19.63;17.77;;;;;;;32.70;66.51;100412.03;4838462;29;65943;-36
2022/04/14 10:42:00;;;;;;;20.10;18.20;;;;;;;32.72;66.82;100404.47;4882808;29;70602;-35
2022/04/14 10:44:48;;;;;;;28.25;19.13;;;;;;;32.73;66.44;100408.81;4885557;29;66789;-36
2022/04/14 10:47:53;;;;;;;20.70;18.67;;;;;;;32.70;67.24;100412.03;4877150;29;70255;-35
2022/04/14 10:50:40;;;;;;;21.25;18.33;;;;;;;32.68;68.00;100415.00;4901636;28;65661;-36
2022/04/14 10:53:28;;;;;;;23.15;18.80;;;;;;;32.70;68.60;100422.88;4918928;28;69702;-36
2022/04/14 10:56:33;;;;;;;21.45;19.50;;;;;;;32.63;68.89;100433.09;4922598;28;66707;-36
2022/04/14 10:59:42;;;;;;;42.50;33.50;;;;;;;32.51;71.94;100454.03;4864605;29;70554;-36
2022/04/14 11:03:21;;;;;;;33.92;30.27;;;;;;;32.40;72.81;100478.25;4898139;28;66149;-35
2022/04/14 11:06:08;;;;;;;38.88;31.45;;;;;;;32.44;73.57;100501.13;4920807;28;69888;-35
2022/04/14 11:08:55;;;;;;;39.20;31.77;;;;;;;32.42;73.52;100513.28;4920257;28;66309;-36
2022/04/14 11:12:01;;;;;;;53.47;39.30;;;;;;;32.24;75.26;100516.97;4883803;29;69123;-35
2022/04/14 11:15:05;;;;;;;53.70;42.03;;;;;;;32.30;75.45;100516.03;4886826;29;66666;-35
2022/04/14 11:18:07;;;;;;;46.90;36.80;;;;;;;31.93;75.91;100456.63;4856804;29;70402;-35
2022/04/14 11:20:56;;;;;;;49.78;34.35;;;;;;;32.29;76.04;100519.81;4835637;29;65099;-35
2022/04/14 11:23:43;;;;;;;43.28;31.38;;;;;;;32.29;76.17;100514.38;4853196;29;70258;-35
2022/04/14 11:26:39;;;;;;;56.95;31.40;;;;;;;32.30;75.58;100494.31;4818253;29;66113;-36
2022/04/14 11:29:32;;;;;;;36.05;28.90;;;;;;;32.40;75.67;100494.53;4849713;29;69067;-37
2022/04/14 11:32:42;;;;;;;36.85;30.65;;;;;;;32.30;75.16;100488.88;4853064;29;66624;-37
2022/04/14 11:35:32;;;;;;;51.47;41.65;;;;;;;32.47;74.06;100522.38;4805723;29;69631;-35
2022/04/14 11:38:52;;;;;;;54.97;45.45;;;;;;;32.41;73.67;100527.91;4835363;29;65142;-36
2022/04/14 11:41:42;;;;;;;60.70;48.80;;;;;;;32.49;73.31;100520.25;4836503;29;70386;-37
2022/04/14 11:44:32;;;;;;;61.42;51.72;;;;;;;32.52;73.05;100518.13;4841612;29;65008;-41
2022/04/14 11:47:19;;;;;;;;;;;;;;;32.24;74.36;100523.22;4845129;29;69038;-36
2022/04/14 11:50:14;;;;;;;55.45;46.00;;;;;;;32.43;73.83;100514.91;4853056;29;66935;-37
2022/04/14 11:53:26;;;;;;;55.55;44.65;;;;;;;32.57;73.80;100542.66;4869457;29;70499;-37
2022/04/14 11:56:18;;;;;;;51.95;43.53;;;;;;;32.57;73.65;100565.22;4863378;29;66622;-35
2022/04/14 11:59:08;;;;;;;47.92;38.92;;;;;;;32.61;73.64;100568.28;4863727;29;70262;-42
2022/04/14 12:01:51;;;;;;;42.80;38.20;;;;;;;32.60;74.00;100563.94;4824676;29;66304;-39
2022/04/14 12:04:38;;;;;;;44.35;36.75;;;;;;;32.59;73.84;100556.81;4824988;29;69276;-36
2022/04/14 12:07:33;;;;;;;39.63;35.40;;;;;;;32.60;73.96;100553.06;4797676;29;66207;-37
2022/04/14 12:10:20;;;;;;;45.53;34.60;;;;;;;32.54;73.91;100545.84;4777540;29;70453;-35